createdAt,value
2019-02-03T00:05:32.274Z,2.70
2019-02-03T00:10:35.668Z,2.70
2019-02-03T00:25:45.943Z,2.70
2019-02-03T00:35:52.699Z,2.70
2019-02-03T00:40:56.439Z,2.70
2019-02-03T00:46:00.245Z,2.70
2019-02-03T01:11:16.843Z,2.70
2019-02-03T01:36:33.563Z,2.70
2019-02-03T01:41:37.248Z,2.70
2019-02-03T01:51:43.736Z,2.70
2019-02-03T02:17:00.314Z,2.70
2019-02-03T02:37:14.233Z,2.50
2019-02-03T02:47:20.962Z,2.50
2019-02-03T03:07:35.227Z,2.50
2019-02-03T03:22:45.108Z,2.50
2019-02-03T03:27:48.945Z,2.50
2019-02-03T03:42:58.818Z,2.20
2019-02-03T03:58:08.674Z,2.30
2019-02-03T04:03:12.389Z,2.30
2019-02-03T04:13:19.197Z,2.40
2019-02-03T04:33:32.773Z,2.50
2019-02-03T04:43:39.256Z,2.60
2019-02-03T05:03:52.555Z,2.50
2019-02-03T05:08:56.276Z,2.50
2019-02-03T05:13:59.987Z,2.40
2019-02-03T05:24:06.856Z,2.40
2019-02-03T05:34:13.345Z,2.50
2019-02-03T05:39:25.103Z,2.40
2019-02-03T05:54:28.860Z,2.50
2019-02-03T06:09:38.771Z,2.50
2019-02-03T06:14:42.432Z,2.50
2019-02-03T06:24:51.754Z,2.40
2019-02-03T06:34:58.416Z,2.20
2019-02-03T06:40:02.136Z,2.10
2019-02-03T06:45:08.861Z,2.00
2019-02-03T07:15:30.545Z,2.00
2019-02-03T07:20:33.955Z,2.10
2019-02-03T07:25:37.392Z,2.10
2019-02-03T07:35:43.871Z,2.20
2019-02-03T07:45:50.645Z,2.30
2019-02-03T07:55:57.762Z,2.40
2019-02-03T08:06:04.582Z,2.50
2019-02-03T08:16:11.335Z,2.60
2019-02-03T08:26:24.654Z,2.80
2019-02-03T08:31:28.851Z,2.80
2019-02-03T08:51:41.881Z,3.20
2019-02-03T09:22:01.659Z,3.30
2019-02-03T09:42:18.474Z,3.70
2019-02-03T09:57:30.493Z,4.00
2019-02-03T10:02:34.187Z,4.00
2019-02-03T10:12:41.028Z,3.90
2019-02-03T10:22:47.601Z,3.80
2019-02-03T10:48:06.148Z,4.50
2019-02-03T10:58:14.518Z,4.60
2019-02-03T11:03:18.239Z,4.70
2019-02-03T11:08:21.686Z,4.90
2019-02-03T11:23:33.094Z,4.70
2019-02-03T11:28:36.869Z,4.60
2019-02-03T11:38:44.091Z,4.40
2019-02-03T11:48:50.883Z,4.50
2019-02-03T12:19:12.627Z,4.90
2019-02-03T12:24:16.093Z,5.10
2019-02-03T12:29:19.569Z,5.10
2019-02-03T12:49:35.991Z,5.00
2019-02-03T12:54:40.019Z,5.10
2019-02-03T13:19:56.517Z,5.20
2019-02-03T13:30:04.106Z,5.30
2019-02-03T13:50:24.271Z,5.50
2019-02-03T13:55:28.981Z,5.50
2019-02-03T14:20:46.757Z,5.70
2019-02-03T14:25:52.604Z,5.70
2019-02-03T14:46:06.536Z,5.80
2019-02-03T14:56:13.208Z,5.90
2019-02-03T15:06:20.067Z,5.80
2019-02-03T15:16:27.237Z,5.60
2019-02-03T15:21:30.658Z,5.60
2019-02-03T15:31:37.466Z,5.50
2019-02-03T15:56:54.118Z,5.30
2019-02-03T16:01:57.546Z,5.30
2019-02-03T16:37:22.158Z,5.00
2019-02-03T16:57:36.211Z,4.80
2019-02-03T17:12:46.097Z,4.50
2019-02-03T17:48:51.463Z,4.00
2019-02-03T18:04:02.116Z,4.00
2019-02-03T18:09:07.950Z,4.00
2019-02-03T18:14:11.879Z,4.00
2019-02-03T18:19:15.827Z,4.00
2019-02-03T19:09:52.842Z,3.10
2019-02-03T19:20:00.000Z,2.70
2019-02-03T19:25:04.416Z,2.60
2019-02-03T19:45:27.382Z,2.10
2019-02-03T20:05:43.571Z,1.60
2019-02-03T20:10:47.423Z,1.50
2019-02-03T20:20:54.497Z,1.40
2019-02-03T20:36:06.362Z,1.20
2019-02-03T20:41:10.235Z,1.10
2019-02-03T20:46:15.538Z,1.10
2019-02-03T20:51:19.038Z,1.10
2019-02-03T21:11:33.311Z,1.30
2019-02-03T21:16:37.089Z,1.50
2019-02-03T21:31:47.415Z,1.70
2019-02-03T21:41:54.452Z,1.70
2019-02-03T21:46:58.542Z,1.60
2019-02-03T21:52:02.015Z,1.60
2019-02-03T22:02:09.109Z,1.50
2019-02-03T22:07:12.822Z,1.50
2019-02-03T22:12:16.271Z,1.50
2019-02-03T22:17:20.106Z,1.60
2019-02-03T22:22:24.091Z,1.70
2019-02-03T22:37:34.194Z,1.80
2019-02-03T22:57:47.431Z,1.40
2019-02-03T23:02:51.421Z,1.30
2019-02-03T23:07:55.234Z,1.10
2019-02-03T23:12:58.924Z,1.10
2019-02-03T23:18:02.674Z,1.20
2019-02-03T23:43:19.477Z,1.10
2019-02-03T23:48:22.970Z,1.00
2019-02-03T23:53:26.438Z,1.00
2019-02-03T23:58:30.510Z,0.90
